Main page
METAR-TAF:

METAR-TAF

Airports :

Nîmes, France

Nîmes–Alès–Camargue–Cévennes Airport

latitude: 43-45N, longitude: 004-25E, elevation: 94 m

Current weather observation

The report was made 15 minutes ago, at 16:30 UTC
Wind 9 kt from the South/Southwest, varying between South/Southeast and Southwest
Temperature 28°C
Humidity 48%
Pressure 1014 hPa
Visibility 10 km or more
no clouds below 1500 m and no cumulonimbus

METAR: LFTW 221630Z AUTO 20009KT 160V230 CAVOK 28/16 Q1014 NOSIG

Time: 18:45 (16:45 UTC)

Forecast

The report was made 2 hours and 45 minutes ago, at 14:00 UTC
Forecast valid from 22 at 15 UTC to 23 at 15 UTC
Wind 10 kt from the South/Southwest
Visibility 10 km or more
no clouds below 1500 m and no cumulonimbus
Becoming
from 22 at 21 UTC to 22 at 23 UTC
Wind 5 kt from variable directions

TAF: LFTW 221400Z 2215/2315 21010KT CAVOK BECMG 2221/2223 VRB05KT

Weather observations and forecasts of more than 4000 airports (METAR and TAF reports).

The available stations are represented by yellow and red dots on the map.

Hover mouse over dot to see the name of the station.

Then click to see weather observations and forecasts.

To change the map : click on the green buttons with a black cross to zoom in, on the green button with a dash to zoom out, or on the green arrows for adjacent maps.


METAR-TAF: